Time;durP1;ratioP1;P1;durP2;ratioP2;P2;SDS_P1;SDS_P2;PMS_P1;PMS_P2;Temp;Humidity;BMP_temperature;BMP_pressure;BME280_temperature;BME280_humidity;BME280_pressure;Samples;Min_cycle;Max_cycle;Signal;HPM_P1;HPM_P2
2022/07/28 00:02:04;;;;;;;;;;;;;;;;;;8450546;27;27474;-73
2022/07/28 00:06:04;;;;;;;;;;;;;;;;;;8447670;27;27304;-73
2022/07/28 00:10:05;;;;;;;;;;;;;;;;;;8444608;27;28511;-73
2022/07/28 00:14:05;;;;;;;;;;;;;;;;;;8450089;27;27233;-73
2022/07/28 00:18:05;;;;;;;;;;;;;;;;;;8440811;27;27398;-73
2022/07/28 00:22:06;;;;;;;;;;;;;;;;;;8454349;27;27384;-73
2022/07/28 00:26:06;;;;;;;;;;;;;;;;;;8449162;27;27473;-73
2022/07/28 00:30:06;;;;;;;;;;;;;;;;;;8457264;27;28235;-73
2022/07/28 00:34:06;;;;;;;;;;;;;;;;;;8449216;27;27250;-73
2022/07/28 00:38:06;;;;;;;;;;;;;;;;;;8446986;27;27158;-73
2022/07/28 00:42:07;;;;;;;;;;;;;;;;;;8447883;27;27383;-73
2022/07/28 00:46:07;;;;;;;;;;;;;;;;;;8446323;27;27420;-73
2022/07/28 00:50:07;;;;;;;;;;;;;;;;;;8447597;27;27511;-73
2022/07/28 00:54:07;;;;;;;;;;;;;;;;;;8449300;27;28016;-73
2022/07/28 00:58:07;;;;;;;;;;;;;;;;;;8458990;27;27543;-73
2022/07/28 01:02:07;;;;;;;;;;;;;;;;;;8449145;27;27495;-73
2022/07/28 01:06:07;;;;;;;;;;;;;;;;;;8456151;27;27165;-73
2022/07/28 01:10:08;;;;;;;;;;;;;;;;;;8454197;27;27091;-73
2022/07/28 01:14:09;;;;;;;;;;;;;;;;;;8451875;27;27321;-73
2022/07/28 01:18:09;;;;;;;;;;;;;;;;;;8455915;27;27974;-73
2022/07/28 01:22:10;;;;;;;;;;;;;;;;;;8455246;27;27290;-73
2022/07/28 01:26:10;;;;;;;;;;;;;;;;;;8451233;27;27316;-73
2022/07/28 01:30:10;;;;;;;;;;;;;;;;;;8452688;27;27531;-73
2022/07/28 01:34:10;;;;;;;;;;;;;;;;;;8455064;27;27382;-72
2022/07/28 01:38:10;;;;;;;;;;;;;;;;;;8455356;27;27362;-73
2022/07/28 01:42:10;;;;;;;;;;;;;;;;;;8454353;27;27478;-72
2022/07/28 01:46:10;;;;;;;;;;;;;;;;;;8454800;27;27332;-72
2022/07/28 01:50:11;;;;;;;;;;;;;;;;;;8452017;27;27149;-73
2022/07/28 01:54:11;;;;;;;;;;;;;;;;;;8454690;27;28600;-72
2022/07/28 01:58:11;;;;;;;;;;;;;;;;;;8455710;27;27368;-73
2022/07/28 02:02:11;;;;;;;;;;;;;;;;;;8449373;27;27291;-73
2022/07/28 02:06:11;;;;;;;;;;;;;;;;;;8447368;27;27623;-73
2022/07/28 02:10:11;;;;;;;;;;;;;;;;;;8456488;27;28703;-73
2022/07/28 02:14:11;;;;;;;;;;;;;;;;;;8450204;27;27271;-73
2022/07/28 02:18:12;;;;;;;;;;;;;;;;;;8453572;27;27204;-73
2022/07/28 02:22:12;;;;;;;;;;;;;;;;;;8447760;27;27564;-73
2022/07/28 02:26:12;;;;;;;;;;;;;;;;;;8452479;27;27337;-73
2022/07/28 02:30:12;;;;;;;;;;;;;;;;;;8444919;27;27358;-73
2022/07/28 02:34:12;;;;;;;;;;;;;;;;;;8449345;27;27360;-73
2022/07/28 02:38:12;;;;;;;;;;;;;;;;;;8444525;27;27367;-73
2022/07/28 02:42:13;;;;;;;;;;;;;;;;;;8452647;27;28158;-74
2022/07/28 02:46:13;;;;;;;;;;;;;;;;;;8448124;27;28140;-74
2022/07/28 02:50:13;;;;;;;;;;;;;;;;;;8449370;27;29344;-73
2022/07/28 02:54:13;;;;;;;;;;;;;;;;;;8453889;27;27426;-73
2022/07/28 02:58:13;;;;;;;;;;;;;;;;;;8450868;27;27315;-73
2022/07/28 03:02:13;;;;;;;;;;;;;;;;;;8448660;27;27562;-73
2022/07/28 03:06:14;;;;;;;;;;;;;;;;;;8452618;27;27403;-73
2022/07/28 03:10:14;;;;;;;;;;;;;;;;;;8446810;27;27344;-73
2022/07/28 03:14:14;;;;;;;;;;;;;;;;;;8450714;27;28551;-73
2022/07/28 03:18:14;;;;;;;;;;;;;;;;;;8445886;27;28027;-73
2022/07/28 03:22:14;;;;;;;;;;;;;;;;;;8448714;27;27996;-73
2022/07/28 03:26:14;;;;;;;;;;;;;;;;;;8445814;27;28057;-73
2022/07/28 03:30:18;;;;;;;;;;;;;;;;;;8446812;27;28122;-73
2022/07/28 03:34:18;;;;;;;;;;;;;;;;;;8443977;27;27372;-73
2022/07/28 03:38:18;;;;;;;;;;;;;;;;;;8442365;27;27416;-73
2022/07/28 03:42:18;;;;;;;;;;;;;;;;;;8457946;27;27273;-73
2022/07/28 03:46:20;;;;;;;;;;;;;;;;;;8448369;27;27159;-74
2022/07/28 03:50:20;;;;;;;;;;;;;;;;;;8447595;27;28443;-74
2022/07/28 03:54:20;;;;;;;;;;;;;;;;;;8448804;27;27488;-73
2022/07/28 03:58:20;;;;;;;;;;;;;;;;;;8449559;27;28311;-73
2022/07/28 04:02:20;;;;;;;;;;;;;;;;;;8449156;27;27412;-73
2022/07/28 04:06:20;;;;;;;;;;;;;;;;;;8449328;27;28305;-73
2022/07/28 04:10:21;;;;;;;;;;;;;;;;;;8445448;27;27466;-73
2022/07/28 04:14:21;;;;;;;;;;;;;;;;;;8453197;27;27415;-73
2022/07/28 04:18:21;;;;;;;;;;;;;;;;;;8452939;27;27618;-73
2022/07/28 04:22:24;;;;;;;;;;;;;;;;;;8448952;27;28306;-73
2022/07/28 04:26:24;;;;;;;;;;;;;;;;;;8443311;27;27455;-73
2022/07/28 04:30:24;;;;;;;;;;;;;;;;;;8447468;27;28314;-73
2022/07/28 04:34:24;;;;;;;;;;;;;;;;;;8447306;27;27399;-73
2022/07/28 04:38:24;;;;;;;;;;;;;;;;;;8456697;27;28316;-73
2022/07/28 04:42:24;;;;;;;;;;;;;;;;;;8450116;27;27393;-73
2022/07/28 04:46:25;;;;;;;;;;;;;;;;;;8448334;27;27374;-73
2022/07/28 04:50:25;;;;;;;;;;;;;;;;;;8450759;27;27582;-74
2022/07/28 04:54:25;;;;;;;;;;;;;;;;;;8448621;27;27360;-74
2022/07/28 04:58:28;;;;;;;;;;;;;;;;;;8448165;27;27352;-73
2022/07/28 05:02:30;;;;;;;;;;;;;;;;;;8445264;27;27546;-73
2022/07/28 05:06:30;;;;;;;;;;;;;;;;;;8446661;27;27267;-73
2022/07/28 05:10:31;;;;;;;;;;;;;;;;;;8454472;27;28784;-73
2022/07/28 05:14:31;;;;;;;;;;;;;;;;;;8447957;27;28289;-73
2022/07/28 05:18:31;;;;;;;;;;;;;;;;;;8452448;27;28277;-73
2022/07/28 05:22:31;;;;;;;;;;;;;;;;;;8446442;27;27589;-73
2022/07/28 05:26:31;;;;;;;;;;;;;;;;;;8448778;27;27570;-73
2022/07/28 05:30:31;;;;;;;;;;;;;;;;;;8446236;27;27622;-73
2022/07/28 05:34:31;;;;;;;;;;;;;;;;;;8445729;27;27362;-73
2022/07/28 05:38:32;;;;;;;;;;;;;;;;;;8448630;27;27443;-73
2022/07/28 05:42:34;;;;;;;;;;;;;;;;;;8449630;27;27339;-73
2022/07/28 05:46:34;;;;;;;;;;;;;;;;;;8454408;27;27339;-73
2022/07/28 05:50:35;;;;;;;;;;;;;;;;;;8453157;27;27375;-73
2022/07/28 05:54:35;;;;;;;;;;;;;;;;;;8450070;27;27347;-74
2022/07/28 05:58:35;;;;;;;;;;;;;;;;;;8452255;27;27224;-73
2022/07/28 06:02:36;;;;;;;;;;;;;;;;;;8452649;27;27485;-74
2022/07/28 06:06:36;;;;;;;;;;;;;;;;;;8455261;27;27544;-74
2022/07/28 06:14:55;;;;;;;;;;;;;;;;;;8446947;27;27099;-73
2022/07/28 06:18:55;;;;;;;;;;;;;;;;;;8448900;27;28325;-73
2022/07/28 06:22:55;;;;;;;;;;;;;;;;;;8453947;27;27129;-73
2022/07/28 06:26:55;;;;;;;;;;;;;;;;;;8447347;27;28459;-74
2022/07/28 06:30:55;;;;;;;;;;;;;;;;;;8451587;27;27123;-74
2022/07/28 06:34:58;;;;;;;;;;;;;;;;;;8451598;27;27412;-73
2022/07/28 06:38:58;;;;;;;;;;;;;;;;;;8452908;27;28049;-73
2022/07/28 06:42:58;;;;;;;;;;;;;;;;;;8449611;27;27446;-73
2022/07/28 06:46:58;;;;;;;;;;;;;;;;;;8456923;27;27633;-73
2022/07/28 06:50:58;;;;;;;;;;;;;;;;;;8453099;27;27597;-73
2022/07/28 06:54:59;;;;;;;;;;;;;;;;;;8451471;27;28226;-73
2022/07/28 06:58:59;;;;;;;;;;;;;;;;;;8452349;27;27446;-74
2022/07/28 07:02:59;;;;;;;;;;;;;;;;;;8447438;27;27401;-73
2022/07/28 07:06:59;;;;;;;;;;;;;;;;;;8450918;27;27309;-74
2022/07/28 07:10:59;;;;;;;;;;;;;;;;;;8450038;27;27152;-74
2022/07/28 07:15:00;;;;;;;;;;;;;;;;;;8456710;27;27470;-74
2022/07/28 07:19:00;;;;;;;;;;;;;;;;;;8454141;27;29320;-74
2022/07/28 07:23:00;;;;;;;;;;;;;;;;;;8454261;27;27537;-74
2022/07/28 07:27:00;;;;;;;;;;;;;;;;;;8453367;27;27400;-74
2022/07/28 07:31:00;;;;;;;;;;;;;;;;;;8448966;27;27842;-74
2022/07/28 07:35:01;;;;;;;;;;;;;;;;;;8452232;27;27496;-73
2022/07/28 07:39:01;;;;;;;;;;;;;;;;;;8453488;27;28227;-73
2022/07/28 07:43:01;;;;;;;;;;;;;;;;;;8451966;27;27225;-73
2022/07/28 07:47:01;;;;;;;;;;;;;;;;;;8445657;27;28493;-74
2022/07/28 07:51:01;;;;;;;;;;;;;;;;;;8448486;27;27378;-74
2022/07/28 07:55:03;;;;;;;;;;;;;;;;;;8447079;27;27348;-74
2022/07/28 07:59:03;;;;;;;;;;;;;;;;;;8450706;27;27197;-74
2022/07/28 08:03:03;;;;;;;;;;;;;;;;;;8453035;27;27336;-74
2022/07/28 08:07:03;;;;;;;;;;;;;;;;;;8447933;27;27392;-74
2022/07/28 08:11:04;;;;;;;;;;;;;;;;;;8450887;27;27358;-74
2022/07/28 08:15:04;;;;;;;;;;;;;;;;;;8452195;27;28270;-74
2022/07/28 08:19:04;;;;;;;;;;;;;;;;;;8451432;27;27275;-73
2022/07/28 08:23:04;;;;;;;;;;;;;;;;;;8450949;27;27364;-74
2022/07/28 08:27:04;;;;;;;;;;;;;;;;;;8450039;27;27626;-74
2022/07/28 08:31:04;;;;;;;;;;;;;;;;;;8444873;27;27278;-74
2022/07/28 08:35:05;;;;;;;;;;;;;;;;;;8450400;27;29396;-74
2022/07/28 08:39:05;;;;;;;;;;;;;;;;;;8451870;27;28621;-74
2022/07/28 08:43:05;;;;;;;;;;;;;;;;;;8448656;27;28428;-73
2022/07/28 08:47:05;;;;;;;;;;;;;;;;;;8450333;27;27366;-73
2022/07/28 08:51:05;;;;;;;;;;;;;;;;;;8447870;27;27286;-74
2022/07/28 08:55:05;;;;;;;;;;;;;;;;;;8446568;27;27288;-73
2022/07/28 08:59:05;;;;;;;;;;;;;;;;;;8448099;27;28262;-74
2022/07/28 09:03:05;;;;;;;;;;;;;;;;;;8446280;27;27314;-74
2022/07/28 09:07:06;;;;;;;;;;;;;;;;;;8443231;27;27349;-73
2022/07/28 09:11:07;;;;;;;;;;;;;;;;;;8450522;27;27864;-73
2022/07/28 09:15:07;;;;;;;;;;;;;;;;;;8449350;27;27400;-74
2022/07/28 09:19:07;;;;;;;;;;;;;;;;;;8451541;27;27367;-74
2022/07/28 09:23:07;;;;;;;;;;;;;;;;;;8454252;27;28490;-74
2022/07/28 09:27:07;;;;;;;;;;;;;;;;;;8449101;27;28472;-74
2022/07/28 09:31:08;;;;;;;;;;;;;;;;;;8451417;27;27471;-73
2022/07/28 09:35:08;;;;;;;;;;;;;;;;;;8448666;27;28218;-74
2022/07/28 09:39:08;;;;;;;;;;;;;;;;;;8449642;27;27327;-74
2022/07/28 09:43:09;;;;;;;;;;;;;;;;;;8457602;27;27351;-74
2022/07/28 09:47:09;;;;;;;;;;;;;;;;;;8457631;27;27366;-74
2022/07/28 09:51:10;;;;;;;;;;;;;;;;;;8458356;27;27983;-74
2022/07/28 09:55:11;;;;;;;;;;;;;;;;;;8449377;27;27410;-74
2022/07/28 09:59:11;;;;;;;;;;;;;;;;;;8459977;27;27413;-74
2022/07/28 10:03:11;;;;;;;;;;;;;;;;;;8457891;27;27601;-74
2022/07/28 10:07:15;;;;;;;;;;;;;;;;;;8454234;27;27249;-74
2022/07/28 10:11:16;;;;;;;;;;;;;;;;;;8451424;27;27316;-74
2022/07/28 10:19:34;;;;;;;;;;;;;;;;;;8447892;27;27376;-73
2022/07/28 10:23:35;;;;;;;;;;;;;;;;;;8454152;27;28269;-73
2022/07/28 10:27:35;;;;;;;;;;;;;;;;;;8452654;27;28200;-74
2022/07/28 10:31:35;;;;;;;;;;;;;;;;;;8451826;27;27363;-74
2022/07/28 10:35:35;;;;;;;;;;;;;;;;;;8450867;27;27322;-74
2022/07/28 10:39:35;;;;;;;;;;;;;;;;;;8453747;27;27286;-74
2022/07/28 10:43:35;;;;;;;;;;;;;;;;;;8459684;27;27611;-74
2022/07/28 10:47:35;;;;;;;;;;;;;;;;;;8452437;27;27409;-74
2022/07/28 10:51:36;;;;;;;;;;;;;;;;;;8449311;27;27172;-73
2022/07/28 10:55:37;;;;;;;;;;;;;;;;;;8451178;27;27432;-74
2022/07/28 10:59:37;;;;;;;;;;;;;;;;;;8450873;27;27503;-74
2022/07/28 11:03:38;;;;;;;;;;;;;;;;;;8447815;27;27702;-74
2022/07/28 11:07:38;;;;;;;;;;;;;;;;;;8451989;27;27425;-73
2022/07/28 11:11:39;;;;;;;;;;;;;;;;;;8447856;27;27582;-74
2022/07/28 11:15:39;;;;;;;;;;;;;;;;;;8453641;27;27558;-74
2022/07/28 11:19:39;;;;;;;;;;;;;;;;;;8457164;27;27377;-74
2022/07/28 11:23:39;;;;;;;;;;;;;;;;;;8451732;27;29404;-74
2022/07/28 11:27:40;;;;;;;;;;;;;;;;;;8452842;27;27380;-74
2022/07/28 11:31:40;;;;;;;;;;;;;;;;;;8450876;27;27440;-74
2022/07/28 11:35:40;;;;;;;;;;;;;;;;;;8452266;27;27284;-74
2022/07/28 11:39:40;;;;;;;;;;;;;;;;;;8456301;27;27362;-74
2022/07/28 11:43:41;;;;;;;;;;;;;;;;;;8452229;27;27646;-74
2022/07/28 11:47:43;;;;;;;;;;;;;;;;;;8448840;27;27452;-74
2022/07/28 11:51:43;;;;;;;;;;;;;;;;;;8450667;27;27851;-74
2022/07/28 11:55:43;;;;;;;;;;;;;;;;;;8446290;27;27103;-74
2022/07/28 11:59:46;;;;;;;;;;;;;;;;;;8447482;27;27110;-74
2022/07/28 12:03:46;;;;;;;;;;;;;;;;;;8447737;27;27103;-74
2022/07/28 12:07:46;;;;;;;;;;;;;;;;;;8444786;27;28199;-74
2022/07/28 12:11:52;;;;;;;;;;;;;;;;;;8445302;27;27702;-74
2022/07/28 12:15:53;;;;;;;;;;;;;;;;;;8443729;27;27500;-74
2022/07/28 12:19:53;;;;;;;;;;;;;;;;;;8443366;27;27877;-74
2022/07/28 12:23:53;;;;;;;;;;;;;;;;;;8442349;27;28208;-74
2022/07/28 12:27:53;;;;;;;;;;;;;;;;;;8443362;27;29452;-74
2022/07/28 12:31:54;;;;;;;;;;;;;;;;;;8441223;27;27389;-74
2022/07/28 12:35:54;;;;;;;;;;;;;;;;;;8444690;27;28085;-74
2022/07/28 12:39:54;;;;;;;;;;;;;;;;;;8438916;27;28397;-74
2022/07/28 12:43:55;;;;;;;;;;;;;;;;;;8440252;27;28188;-74
2022/07/28 12:47:55;;;;;;;;;;;;;;;;;;8445956;27;27242;-74
2022/07/28 12:51:57;;;;;;;;;;;;;;;;;;8440066;27;28740;-74
2022/07/28 12:55:58;;;;;;;;;;;;;;;;;;8442254;27;28957;-74
2022/07/28 12:59:58;;;;;;;;;;;;;;;;;;8443988;27;27403;-73
2022/07/28 13:03:58;;;;;;;;;;;;;;;;;;8440471;27;27493;-74
2022/07/28 13:07:58;;;;;;;;;;;;;;;;;;8441210;27;27388;-74
2022/07/28 13:11:58;;;;;;;;;;;;;;;;;;8441600;27;28145;-74
2022/07/28 13:15:59;;;;;;;;;;;;;;;;;;8438728;27;27346;-74
2022/07/28 13:19:59;;;;;;;;;;;;;;;;;;8443124;27;28386;-74
2022/07/28 13:23:59;;;;;;;;;;;;;;;;;;8442056;27;27478;-74
2022/07/28 13:27:59;;;;;;;;;;;;;;;;;;8441461;27;27340;-74
2022/07/28 13:32:00;;;;;;;;;;;;;;;;;;8439767;27;27171;-74
2022/07/28 13:36:00;;;;;;;;;;;;;;;;;;8440488;27;27488;-74
2022/07/28 13:40:00;;;;;;;;;;;;;;;;;;8439627;27;28289;-74
2022/07/28 13:44:03;;;;;;;;;;;;;;;;;;8440087;27;29390;-74
2022/07/28 13:48:03;;;;;;;;;;;;;;;;;;8438752;27;27490;-74
2022/07/28 13:52:03;;;;;;;;;;;;;;;;;;8440325;27;28137;-74
2022/07/28 13:56:03;;;;;;;;;;;;;;;;;;8439561;27;27248;-74
2022/07/28 14:00:05;;;;;;;;;;;;;;;;;;8439203;27;29224;-73
2022/07/28 14:04:06;;;;;;;;;;;;;;;;;;8443778;27;28645;-73
2022/07/28 14:08:06;;;;;;;;;;;;;;;;;;8445023;27;27197;-74
2022/07/28 14:12:06;;;;;;;;;;;;;;;;;;8447356;27;27438;-73
2022/07/28 14:16:06;;;;;;;;;;;;;;;;;;8445243;27;27470;-74
2022/07/28 14:20:06;;;;;;;;;;;;;;;;;;8445985;27;27282;-74
2022/07/28 14:24:06;;;;;;;;;;;;;;;;;;8445663;27;28527;-74
2022/07/28 14:28:06;;;;;;;;;;;;;;;;;;8447419;27;28678;-74
2022/07/28 14:32:09;;;;;;;;;;;;;;;;;;8447551;27;27746;-74
2022/07/28 14:36:11;;;;;;;;;;;;;;;;;;8447502;27;27489;-74
2022/07/28 14:40:12;;;;;;;;;;;;;;;;;;8445460;27;27727;-74
2022/07/28 14:44:12;;;;;;;;;;;;;;;;;;8445931;27;28191;-74
2022/07/28 14:48:15;;;;;;;;;;;;;;;;;;8444446;27;27191;-74
2022/07/28 14:52:15;;;;;;;;;;;;;;;;;;8444427;27;28001;-74
2022/07/28 14:56:15;;;;;;;;;;;;;;;;;;8443048;27;27151;-74
2022/07/28 15:00:15;;;;;;;;;;;;;;;;;;8448173;27;27245;-74
2022/07/28 15:04:15;;;;;;;;;;;;;;;;;;8447431;27;28295;-74
2022/07/28 15:08:15;;;;;;;;;;;;;;;;;;8446899;27;27193;-74
2022/07/28 15:12:16;;;;;;;;;;;;;;;;;;8446957;27;28547;-74
2022/07/28 15:16:16;;;;;;;;;;;;;;;;;;8442560;27;27353;-74
2022/07/28 15:20:17;;;;;;;;;;;;;;;;;;8445553;27;27152;-74
2022/07/28 15:24:18;;;;;;;;;;;;;;;;;;8447460;27;28262;-74
2022/07/28 15:28:18;;;;;;;;;;;;;;;;;;8446370;27;28658;-74
2022/07/28 15:32:18;;;;;;;;;;;;;;;;;;8442331;27;28190;-74
2022/07/28 15:36:18;;;;;;;;;;;;;;;;;;8446691;27;28229;-74
2022/07/28 15:40:18;;;;;;;;;;;;;;;;;;8443716;27;28387;-74
2022/07/28 15:44:19;;;;;;;;;;;;;;;;;;8444072;27;27967;-74
2022/07/28 15:48:19;;;;;;;;;;;;;;;;;;8444346;27;27209;-74
2022/07/28 15:52:20;;;;;;;;;;;;;;;;;;8444345;27;27303;-74
2022/07/28 15:56:20;;;;;;;;;;;;;;;;;;8439849;27;28352;-73
2022/07/28 16:00:20;;;;;;;;;;;;;;;;;;8441965;27;27456;-73
2022/07/28 16:04:20;;;;;;;;;;;;;;;;;;8442648;27;27326;-74
2022/07/28 16:08:20;;;;;;;;;;;;;;;;;;8444643;27;27221;-74
2022/07/28 16:12:21;;;;;;;;;;;;;;;;;;8440682;27;27205;-74
2022/07/28 16:16:21;;;;;;;;;;;;;;;;;;8443768;27;27384;-74
2022/07/28 16:20:22;;;;;;;;;;;;;;;;;;8442764;27;27407;-74
2022/07/28 16:24:22;;;;;;;;;;;;;;;;;;8443010;27;27684;-74
2022/07/28 16:28:22;;;;;;;;;;;;;;;;;;8444773;27;27183;-74
2022/07/28 16:32:22;;;;;;;;;;;;;;;;;;8440274;27;27383;-74
2022/07/28 16:36:22;;;;;;;;;;;;;;;;;;8440689;27;27285;-74
2022/07/28 16:40:22;;;;;;;;;;;;;;;;;;8441314;27;27889;-74
2022/07/28 16:44:23;;;;;;;;;;;;;;;;;;8442403;27;28096;-74
2022/07/28 16:48:25;;;;;;;;;;;;;;;;;;8439412;27;28250;-74
2022/07/28 16:52:26;;;;;;;;;;;;;;;;;;8442895;27;27353;-74
2022/07/28 16:56:26;;;;;;;;;;;;;;;;;;8440287;27;27911;-74
2022/07/28 17:00:26;;;;;;;;;;;;;;;;;;8440373;27;28568;-73
2022/07/28 17:04:26;;;;;;;;;;;;;;;;;;8444720;27;28021;-74
2022/07/28 17:08:29;;;;;;;;;;;;;;;;;;8440820;27;27621;-74
2022/07/28 17:12:29;;;;;;;;;;;;;;;;;;8441759;27;27971;-74
2022/07/28 17:16:29;;;;;;;;;;;;;;;;;;8438082;27;27463;-73
2022/07/28 17:20:30;;;;;;;;;;;;;;;;;;8445220;27;27522;-74
2022/07/28 17:24:30;;;;;;;;;;;;;;;;;;8443628;27;27404;-74
2022/07/28 17:28:30;;;;;;;;;;;;;;;;;;8440547;27;27440;-75
2022/07/28 17:32:30;;;;;;;;;;;;;;;;;;8442892;27;27847;-74
2022/07/28 17:36:34;;;;;;;;;;;;;;;;;;8443156;27;27490;-74
2022/07/28 17:40:34;;;;;;;;;;;;;;;;;;8448843;27;27473;-74
2022/07/28 17:44:34;;;;;;;;;;;;;;;;;;8451888;27;28465;-74
2022/07/28 17:48:34;;;;;;;;;;;;;;;;;;8451319;27;27395;-74
2022/07/28 17:52:34;;;;;;;;;;;;;;;;;;8449929;27;27152;-74
2022/07/28 17:56:35;;;;;;;;;;;;;;;;;;8447654;27;28455;-73
2022/07/28 18:00:35;;;;;;;;;;;;;;;;;;8447633;27;27432;-73
2022/07/28 18:04:36;;;;;;;;;;;;;;;;;;8449444;27;28331;-73
2022/07/28 18:08:36;;;;;;;;;;;;;;;;;;8447890;27;27450;-73
2022/07/28 18:12:36;;;;;;;;;;;;;;;;;;8447662;27;27472;-74
2022/07/28 18:16:36;;;;;;;;;;;;;;;;;;8449850;27;27493;-73
2022/07/28 18:20:39;;;;;;;;;;;;;;;;;;8449273;27;27353;-74
2022/07/28 18:24:39;;;;;;;;;;;;;;;;;;8447753;27;27339;-73
2022/07/28 18:28:40;;;;;;;;;;;;;;;;;;8447215;27;27151;-73
2022/07/28 18:32:40;;;;;;;;;;;;;;;;;;8445922;27;27461;-74
2022/07/28 18:36:42;;;;;;;;;;;;;;;;;;8445009;27;28490;-73
2022/07/28 18:40:43;;;;;;;;;;;;;;;;;;8447645;27;27229;-73
2022/07/28 18:44:43;;;;;;;;;;;;;;;;;;8444449;27;27386;-73
2022/07/28 18:48:43;;;;;;;;;;;;;;;;;;8442519;27;28487;-73
2022/07/28 18:52:43;;;;;;;;;;;;;;;;;;8444553;27;27405;-73
2022/07/28 18:56:43;;;;;;;;;;;;;;;;;;8443723;27;27415;-73
2022/07/28 19:00:46;;;;;;;;;;;;;;;;;;8444969;27;27385;-73
2022/07/28 19:04:46;;;;;;;;;;;;;;;;;;8445866;27;27344;-73
2022/07/28 19:08:46;;;;;;;;;;;;;;;;;;8445712;27;27447;-73
2022/07/28 19:12:47;;;;;;;;;;;;;;;;;;8445983;27;27406;-73
2022/07/28 19:16:47;;;;;;;;;;;;;;;;;;8440893;27;27444;-73
2022/07/28 19:20:47;;;;;;;;;;;;;;;;;;8443629;27;27333;-73
2022/07/28 19:24:48;;;;;;;;;;;;;;;;;;8445150;27;27444;-74
2022/07/28 19:28:48;;;;;;;;;;;;;;;;;;8444581;27;27781;-73
2022/07/28 19:32:48;;;;;;;;;;;;;;;;;;8446083;27;27798;-73
2022/07/28 19:36:50;;;;;;;;;;;;;;;;;;8443262;27;27588;-74
2022/07/28 19:40:50;;;;;;;;;;;;;;;;;;8440936;27;27129;-73
2022/07/28 19:44:50;;;;;;;;;;;;;;;;;;8443920;27;27459;-73
2022/07/28 19:48:50;;;;;;;;;;;;;;;;;;8445590;27;28674;-73
2022/07/28 19:52:50;;;;;;;;;;;;;;;;;;8439402;27;27411;-73
2022/07/28 19:56:53;;;;;;;;;;;;;;;;;;8443260;27;28388;-73
2022/07/28 20:00:53;;;;;;;;;;;;;;;;;;8446655;27;27369;-73
2022/07/28 20:04:53;;;;;;;;;;;;;;;;;;8441369;27;28221;-73
2022/07/28 20:08:55;;;;;;;;;;;;;;;;;;8443824;27;27294;-73
2022/07/28 20:12:55;;;;;;;;;;;;;;;;;;8445326;27;29575;-72
2022/07/28 20:16:55;;;;;;;;;;;;;;;;;;8441996;27;27389;-72
2022/07/28 20:20:56;;;;;;;;;;;;;;;;;;8443890;27;28643;-73
2022/07/28 20:24:58;;;;;;;;;;;;;;;;;;8443203;27;28691;-73
2022/07/28 20:29:00;;;;;;;;;;;;;;;;;;8442029;27;27395;-73
2022/07/28 20:33:02;;;;;;;;;;;;;;;;;;8445446;27;27536;-73
2022/07/28 20:37:04;;;;;;;;;;;;;;;;;;8441680;27;46351;-73
2022/07/28 20:41:07;;;;;;;;;;;;;;;;;;8438864;27;28068;-73
2022/07/28 20:45:07;;;;;;;;;;;;;;;;;;8441458;27;28342;-73
2022/07/28 20:49:07;;;;;;;;;;;;;;;;;;8444507;27;27735;-74
2022/07/28 20:53:08;;;;;;;;;;;;;;;;;;8441392;27;29155;-73
2022/07/28 20:57:09;;;;;;;;;;;;;;;;;;8440409;27;27506;-72
2022/07/28 21:01:09;;;;;;;;;;;;;;;;;;8445675;27;27443;-72
2022/07/28 21:05:10;;;;;;;;;;;;;;;;;;8448173;27;28638;-73
2022/07/28 21:09:10;;;;;;;;;;;;;;;;;;8441790;27;28559;-73
2022/07/28 21:13:10;;;;;;;;;;;;;;;;;;8445614;27;27455;-73
2022/07/28 21:17:10;;;;;;;;;;;;;;;;;;8441700;27;27242;-73
2022/07/28 21:21:10;;;;;;;;;;;;;;;;;;8445459;27;27979;-74
2022/07/28 21:25:10;;;;;;;;;;;;;;;;;;8445096;27;27442;-73
2022/07/28 21:29:11;;;;;;;;;;;;;;;;;;8443819;27;29069;-73
2022/07/28 21:33:11;;;;;;;;;;;;;;;;;;8445780;27;27256;-73
2022/07/28 21:37:12;;;;;;;;;;;;;;;;;;8444875;27;27224;-73
2022/07/28 21:41:12;;;;;;;;;;;;;;;;;;8443636;27;27233;-73
2022/07/28 21:45:12;;;;;;;;;;;;;;;;;;8446835;27;28227;-73
2022/07/28 21:49:12;;;;;;;;;;;;;;;;;;8446965;27;28351;-73
2022/07/28 21:53:13;;;;;;;;;;;;;;;;;;8441429;27;28502;-73
2022/07/28 21:57:13;;;;;;;;;;;;;;;;;;8449305;27;27254;-73
2022/07/28 22:01:13;;;;;;;;;;;;;;;;;;8445824;27;28223;-73
2022/07/28 22:05:13;;;;;;;;;;;;;;;;;;8444411;27;28208;-73
2022/07/28 22:09:13;;;;;;;;;;;;;;;;;;8443435;27;27371;-73
2022/07/28 22:13:17;;;;;;;;;;;;;;;;;;8445682;27;27321;-73
2022/07/28 22:17:17;;;;;;;;;;;;;;;;;;8440698;27;27618;-73
2022/07/28 22:21:17;;;;;;;;;;;;;;;;;;8445736;27;27324;-73
2022/07/28 22:25:17;;;;;;;;;;;;;;;;;;8444426;27;27886;-73
2022/07/28 22:29:18;;;;;;;;;;;;;;;;;;8448985;27;27389;-72
2022/07/28 22:33:18;;;;;;;;;;;;;;;;;;8447867;27;28348;-73
2022/07/28 22:37:18;;;;;;;;;;;;;;;;;;8443422;27;27300;-73
2022/07/28 22:41:20;;;;;;;;;;;;;;;;;;8445456;27;27271;-73
2022/07/28 22:45:21;;;;;;;;;;;;;;;;;;8446934;27;28428;-73
2022/07/28 22:49:21;;;;;;;;;;;;;;;;;;8448132;27;28170;-73
2022/07/28 22:53:21;;;;;;;;;;;;;;;;;;8447398;27;27836;-73
2022/07/28 22:57:21;;;;;;;;;;;;;;;;;;8445875;27;46313;-73
2022/07/28 23:01:21;;;;;;;;;;;;;;;;;;8443397;27;27221;-73
2022/07/28 23:05:21;;;;;;;;;;;;;;;;;;8449035;27;27198;-73
2022/07/28 23:09:21;;;;;;;;;;;;;;;;;;8446560;27;27441;-73
2022/07/28 23:13:22;;;;;;;;;;;;;;;;;;8443045;27;27374;-73
2022/07/28 23:17:22;;;;;;;;;;;;;;;;;;8447676;27;27354;-73
2022/07/28 23:21:22;;;;;;;;;;;;;;;;;;8441709;27;27460;-73
2022/07/28 23:25:22;;;;;;;;;;;;;;;;;;8441927;27;27710;-74
2022/07/28 23:29:22;;;;;;;;;;;;;;;;;;8445667;27;29412;-73
2022/07/28 23:33:22;;;;;;;;;;;;;;;;;;8444763;27;27734;-73
2022/07/28 23:37:22;;;;;;;;;;;;;;;;;;8439868;27;28464;-73
2022/07/28 23:41:25;;;;;;;;;;;;;;;;;;8440746;27;27475;-74
2022/07/28 23:45:25;;;;;;;;;;;;;;;;;;8445613;27;27451;-73
2022/07/28 23:49:25;;;;;;;;;;;;;;;;;;8442321;27;27504;-72
2022/07/28 23:53:25;;;;;;;;;;;;;;;;;;8445258;27;28631;-73
2022/07/28 23:57:26;;;;;;;;;;;;;;;;;;8444992;27;27336;-72
